sensor_id;sensor_type;location;lat;lon;timestamp;pressure;altitude;pressure_sealevel;temperature;humidity
73151;BME280;61354;50.758;6.106;2023-09-19T00:02:03;98482.94;;;14.73;100.00
73151;BME280;61354;50.758;6.106;2023-09-19T00:04:33;98489.34;;;14.74;100.00
73151;BME280;61354;50.758;6.106;2023-09-19T00:06:59;98482.53;;;14.67;100.00
73151;BME280;61354;50.758;6.106;2023-09-19T00:09:25;98483.75;;;14.66;100.00
73151;BME280;61354;50.758;6.106;2023-09-19T00:11:53;98490.53;;;14.65;100.00
73151;BME280;61354;50.758;6.106;2023-09-19T00:14:19;98496.50;;;14.67;100.00
73151;BME280;61354;50.758;6.106;2023-09-19T00:16:45;98498.13;;;14.69;100.00
73151;BME280;61354;50.758;6.106;2023-09-19T00:19:11;98490.91;;;14.71;100.00
73151;BME280;61354;50.758;6.106;2023-09-19T00:21:37;98494.91;;;14.70;100.00
73151;BME280;61354;50.758;6.106;2023-09-19T00:24:04;98500.50;;;14.74;100.00
73151;BME280;61354;50.758;6.106;2023-09-19T00:26:32;98500.50;;;14.66;100.00
73151;BME280;61354;50.758;6.106;2023-09-19T00:28:57;98506.91;;;14.63;100.00
73151;BME280;61354;50.758;6.106;2023-09-19T00:31:34;98513.31;;;14.64;100.00
73151;BME280;61354;50.758;6.106;2023-09-19T00:33:59;98507.72;;;14.64;100.00
73151;BME280;61354;50.758;6.106;2023-09-19T00:36:29;98513.69;;;14.62;100.00
73151;BME280;61354;50.758;6.106;2023-09-19T00:38:55;98514.47;;;14.63;100.00
73151;BME280;61354;50.758;6.106;2023-09-19T00:41:20;98517.28;;;14.59;100.00
73151;BME280;61354;50.758;6.106;2023-09-19T00:43:46;98522.88;;;14.66;100.00
73151;BME280;61354;50.758;6.106;2023-09-19T00:46:17;98514.09;;;14.57;100.00
73151;BME280;61354;50.758;6.106;2023-09-19T00:48:42;98521.28;;;14.58;100.00
73151;BME280;61354;50.758;6.106;2023-09-19T00:51:12;98524.84;;;14.41;100.00
73151;BME280;61354;50.758;6.106;2023-09-19T00:53:45;98535.59;;;14.46;100.00
73151;BME280;61354;50.758;6.106;2023-09-19T00:56:11;98534.41;;;14.36;100.00
73151;BME280;61354;50.758;6.106;2023-09-19T00:58:38;98535.22;;;14.37;100.00
73151;BME280;61354;50.758;6.106;2023-09-19T01:01:04;98541.16;;;14.17;100.00
73151;BME280;61354;50.758;6.106;2023-09-19T01:03:36;98543.59;;;14.23;100.00
73151;BME280;61354;50.758;6.106;2023-09-19T01:06:02;98547.56;;;14.14;100.00
73151;BME280;61354;50.758;6.106;2023-09-19T01:08:28;98545.13;;;14.09;100.00
73151;BME280;61354;50.758;6.106;2023-09-19T01:11:43;98545.53;;;14.01;100.00
73151;BME280;61354;50.758;6.106;2023-09-19T01:13:58;98550.31;;;14.00;100.00
73151;BME280;61354;50.758;6.106;2023-09-19T01:25:31;98556.31;;;14.09;100.00
73151;BME280;61354;50.758;6.106;2023-09-19T01:30:52;98564.66;;;13.95;100.00
73151;BME280;61354;50.758;6.106;2023-09-19T01:33:23;98564.63;;;13.88;100.00
73151;BME280;61354;50.758;6.106;2023-09-19T01:35:49;98557.03;;;13.78;100.00
73151;BME280;61354;50.758;6.106;2023-09-19T01:38:16;98571.00;;;13.81;100.00
73151;BME280;61354;50.758;6.106;2023-09-19T01:40:43;98567.41;;;13.77;100.00
73151;BME280;61354;50.758;6.106;2023-09-19T01:43:27;98578.53;;;13.74;100.00
73151;BME280;61354;50.758;6.106;2023-09-19T01:46:05;98586.50;;;13.72;100.00
73151;BME280;61354;50.758;6.106;2023-09-19T01:54:12;98584.53;;;13.76;100.00
73151;BME280;61354;50.758;6.106;2023-09-19T01:57:42;98580.88;;;13.61;100.00
73151;BME280;61354;50.758;6.106;2023-09-19T01:59:49;98584.50;;;13.68;100.00
73151;BME280;61354;50.758;6.106;2023-09-19T02:02:17;98592.03;;;13.57;100.00
73151;BME280;61354;50.758;6.106;2023-09-19T02:04:43;98588.47;;;13.60;100.00
73151;BME280;61354;50.758;6.106;2023-09-19T02:07:09;98588.81;;;13.55;100.00
73151;BME280;61354;50.758;6.106;2023-09-19T02:09:34;98592.47;;;13.66;100.00
73151;BME280;61354;50.758;6.106;2023-09-19T02:12:04;98596.38;;;13.51;100.00
73151;BME280;61354;50.758;6.106;2023-09-19T02:14:30;98592.38;;;13.45;100.00
73151;BME280;61354;50.758;6.106;2023-09-19T02:16:56;98594.34;;;13.41;100.00
73151;BME280;61354;50.758;6.106;2023-09-19T02:19:22;98593.09;;;13.35;100.00
73151;BME280;61354;50.758;6.106;2023-09-19T02:21:47;98601.94;;;13.51;100.00
73151;BME280;61354;50.758;6.106;2023-09-19T02:24:14;98600.72;;;13.45;100.00
73151;BME280;61354;50.758;6.106;2023-09-19T02:26:41;98595.16;;;13.45;100.00
73151;BME280;61354;50.758;6.106;2023-09-19T02:29:06;98599.88;;;13.37;100.00
73151;BME280;61354;50.758;6.106;2023-09-19T02:31:32;98600.28;;;13.36;100.00
73151;BME280;61354;50.758;6.106;2023-09-19T02:33:57;98598.69;;;13.38;100.00
73151;BME280;61354;50.758;6.106;2023-09-19T02:36:23;98606.31;;;13.45;100.00
73151;BME280;61354;50.758;6.106;2023-09-19T02:38:49;98606.34;;;13.49;100.00
73151;BME280;61354;50.758;6.106;2023-09-19T02:41:15;98597.59;;;13.57;100.00
73151;BME280;61354;50.758;6.106;2023-09-19T02:43:40;98603.91;;;13.40;100.00
73151;BME280;61354;50.758;6.106;2023-09-19T02:46:09;98598.31;;;13.40;100.00
73151;BME280;61354;50.758;6.106;2023-09-19T02:48:36;98594.28;;;13.34;100.00
73151;BME280;61354;50.758;6.106;2023-09-19T02:51:02;98598.28;;;13.36;100.00
73151;BME280;61354;50.758;6.106;2023-09-19T02:53:30;98593.91;;;13.35;100.00
73151;BME280;61354;50.758;6.106;2023-09-19T02:55:57;98588.75;;;13.41;100.00
73151;BME280;61354;50.758;6.106;2023-09-19T02:58:24;98586.34;;;13.36;100.00
73151;BME280;61354;50.758;6.106;2023-09-19T03:00:50;98583.16;;;13.37;100.00
73151;BME280;61354;50.758;6.106;2023-09-19T03:03:17;98595.53;;;13.40;100.00
73151;BME280;61354;50.758;6.106;2023-09-19T03:05:43;98595.88;;;13.35;100.00
73151;BME280;61354;50.758;6.106;2023-09-19T03:08:13;98590.28;;;13.28;100.00
73151;BME280;61354;50.758;6.106;2023-09-19T03:10:42;98591.13;;;13.35;100.00
73151;BME280;61354;50.758;6.106;2023-09-19T03:13:08;98593.44;;;13.26;100.00
73151;BME280;61354;50.758;6.106;2023-09-19T03:15:35;98586.31;;;13.32;100.00
73151;BME280;61354;50.758;6.106;2023-09-19T03:18:04;98593.41;;;13.23;100.00
73151;BME280;61354;50.758;6.106;2023-09-19T03:20:30;98594.56;;;13.22;100.00
73151;BME280;61354;50.758;6.106;2023-09-19T03:22:55;98599.03;;;13.30;100.00
73151;BME280;61354;50.758;6.106;2023-09-19T03:25:23;98612.09;;;13.22;100.00
73151;BME280;61354;50.758;6.106;2023-09-19T03:27:48;98598.97;;;13.19;100.00
73151;BME280;61354;50.758;6.106;2023-09-19T03:30:14;98606.94;;;13.21;100.00
73151;BME280;61354;50.758;6.106;2023-09-19T03:32:47;98616.06;;;13.17;100.00
73151;BME280;61354;50.758;6.106;2023-09-19T03:35:16;98613.28;;;13.17;100.00
73151;BME280;61354;50.758;6.106;2023-09-19T03:37:42;98623.22;;;13.18;100.00
73151;BME280;61354;50.758;6.106;2023-09-19T03:40:09;98620.81;;;13.13;100.00
73151;BME280;61354;50.758;6.106;2023-09-19T03:42:40;98622.41;;;13.14;100.00
73151;BME280;61354;50.758;6.106;2023-09-19T03:45:07;98615.63;;;13.12;100.00
73151;BME280;61354;50.758;6.106;2023-09-19T03:47:38;98620.81;;;13.13;100.00
73151;BME280;61354;50.758;6.106;2023-09-19T03:50:05;98617.25;;;13.16;100.00
73151;BME280;61354;50.758;6.106;2023-09-19T03:52:31;98624.78;;;13.12;100.00
73151;BME280;61354;50.758;6.106;2023-09-19T03:54:56;98624.41;;;13.14;100.00
73151;BME280;61354;50.758;6.106;2023-09-19T03:57:22;98622.38;;;13.07;100.00
73151;BME280;61354;50.758;6.106;2023-09-19T03:59:47;98615.59;;;13.08;100.00
73151;BME280;61354;50.758;6.106;2023-09-19T04:02:13;98614.84;;;13.11;100.00
73151;BME280;61354;50.758;6.106;2023-09-19T04:04:51;98620.38;;;13.08;100.00
73151;BME280;61354;50.758;6.106;2023-09-19T04:07:17;98616.47;;;13.16;100.00
73151;BME280;61354;50.758;6.106;2023-09-19T04:09:44;98612.06;;;13.11;100.00
73151;BME280;61354;50.758;6.106;2023-09-19T04:12:11;98616.78;;;13.07;100.00
73151;BME280;61354;50.758;6.106;2023-09-19T04:14:37;98620.38;;;13.08;100.00
73151;BME280;61354;50.758;6.106;2023-09-19T04:17:04;98620.78;;;13.10;100.00
73151;BME280;61354;50.758;6.106;2023-09-19T04:19:30;98621.56;;;13.10;100.00
73151;BME280;61354;50.758;6.106;2023-09-19T04:21:56;98612.81;;;13.08;100.00
73151;BME280;61354;50.758;6.106;2023-09-19T04:24:22;98616.44;;;13.12;100.00
73151;BME280;61354;50.758;6.106;2023-09-19T04:26:47;98613.19;;;13.03;100.00
73151;BME280;61354;50.758;6.106;2023-09-19T04:29:13;98615.94;;;13.00;100.00
73151;BME280;61354;50.758;6.106;2023-09-19T04:31:39;98621.94;;;13.05;100.00
73151;BME280;61354;50.758;6.106;2023-09-19T04:34:06;98619.13;;;13.02;100.00
73151;BME280;61354;50.758;6.106;2023-09-19T04:36:32;98617.91;;;12.96;100.00
73151;BME280;61354;50.758;6.106;2023-09-19T04:38:57;98612.72;;;12.94;100.00
73151;BME280;61354;50.758;6.106;2023-09-19T04:41:23;98618.69;;;12.96;100.00
73151;BME280;61354;50.758;6.106;2023-09-19T04:43:49;98624.22;;;12.89;100.00
73151;BME280;61354;50.758;6.106;2023-09-19T04:46:16;98625.78;;;12.86;100.00
73151;BME280;61354;50.758;6.106;2023-09-19T04:48:43;98636.25;;;13.00;100.00
73151;BME280;61354;50.758;6.106;2023-09-19T04:51:09;98643.81;;;13.00;100.00
73151;BME280;61354;50.758;6.106;2023-09-19T04:53:36;98636.25;;;13.00;100.00
73151;BME280;61354;50.758;6.106;2023-09-19T04:56:01;98641.41;;;12.98;100.00
73151;BME280;61354;50.758;6.106;2023-09-19T04:58:37;98638.63;;;13.02;100.00
73151;BME280;61354;50.758;6.106;2023-09-19T05:01:03;98645.03;;;13.02;100.00
73151;BME280;61354;50.758;6.106;2023-09-19T05:03:29;98648.44;;;12.85;100.00
73151;BME280;61354;50.758;6.106;2023-09-19T05:05:55;98651.25;;;12.85;100.00
73151;BME280;61354;50.758;6.106;2023-09-19T05:08:20;98656.81;;;12.85;100.00
73151;BME280;61354;50.758;6.106;2023-09-19T05:10:47;98660.78;;;12.84;100.00
73151;BME280;61354;50.758;6.106;2023-09-19T05:13:14;98656.81;;;12.85;100.00
73151;BME280;61354;50.758;6.106;2023-09-19T05:15:40;98668.75;;;12.85;100.00
73151;BME280;61354;50.758;6.106;2023-09-19T05:18:06;98669.63;;;12.93;100.00
73151;BME280;61354;50.758;6.106;2023-09-19T05:20:37;98676.75;;;12.87;100.00
73151;BME280;61354;50.758;6.106;2023-09-19T05:23:06;98679.16;;;12.88;100.00
73151;BME280;61354;50.758;6.106;2023-09-19T05:25:35;98685.44;;;12.78;100.00
73151;BME280;61354;50.758;6.106;2023-09-19T05:28:09;98677.22;;;12.96;100.00
73151;BME280;61354;50.758;6.106;2023-09-19T05:30:37;98678.41;;;12.95;100.00
73151;BME280;61354;50.758;6.106;2023-09-19T05:33:08;98687.56;;;12.96;100.00
73151;BME280;61354;50.758;6.106;2023-09-19T05:35:33;98677.66;;;12.98;100.00
73151;BME280;61354;50.758;6.106;2023-09-19T05:37:59;98686.41;;;13.00;100.00
73151;BME280;61354;50.758;6.106;2023-09-19T05:40:25;98683.22;;;12.98;100.00
73151;BME280;61354;50.758;6.106;2023-09-19T05:42:51;98694.34;;;12.94;100.00
73151;BME280;61354;50.758;6.106;2023-09-19T05:45:17;98696.72;;;12.96;100.00
73151;BME280;61354;50.758;6.106;2023-09-19T05:47:48;98691.63;;;13.05;100.00
73151;BME280;61354;50.758;6.106;2023-09-19T05:50:15;98694.78;;;13.00;100.00
73151;BME280;61354;50.758;6.106;2023-09-19T05:52:42;98706.28;;;12.95;100.00
73151;BME280;61354;50.758;6.106;2023-09-19T05:55:09;98700.22;;;12.86;100.00
73151;BME280;61354;50.758;6.106;2023-09-19T05:57:38;98716.13;;;12.85;100.00
73151;BME280;61354;50.758;6.106;2023-09-19T06:00:05;98707.81;;;12.89;100.00
73151;BME280;61354;50.758;6.106;2023-09-19T06:02:37;98719.38;;;12.91;100.00
73151;BME280;61354;50.758;6.106;2023-09-19T06:05:07;98716.97;;;12.86;100.00
73151;BME280;61354;50.758;6.106;2023-09-19T06:07:36;98717.78;;;12.90;100.00
73151;BME280;61354;50.758;6.106;2023-09-19T06:32:37;98719.09;;;13.03;100.00
73151;BME280;61354;50.758;6.106;2023-09-19T06:57:37;98720.97;;;13.33;100.00
73151;BME280;61354;50.758;6.106;2023-09-19T07:00:37;98722.19;;;13.35;100.00
73151;BME280;61354;50.758;6.106;2023-09-19T07:03:37;98718.56;;;13.35;100.00
73151;BME280;61354;50.758;6.106;2023-09-19T07:06:38;98716.97;;;13.34;100.00
73151;BME280;61354;50.758;6.106;2023-09-19T07:09:03;98721.75;;;13.33;100.00
73151;BME280;61354;50.758;6.106;2023-09-19T07:11:29;98728.56;;;13.36;100.00
73151;BME280;61354;50.758;6.106;2023-09-19T07:13:56;98724.22;;;13.42;100.00
73151;BME280;61354;50.758;6.106;2023-09-19T07:16:23;98727.47;;;13.51;100.00
73151;BME280;61354;50.758;6.106;2023-09-19T07:18:55;98723.50;;;13.52;100.00
73151;BME280;61354;50.758;6.106;2023-09-19T07:21:22;98734.69;;;13.59;100.00
73151;BME280;61354;50.758;6.106;2023-09-19T07:23:48;98744.25;;;13.58;100.00
73151;BME280;61354;50.758;6.106;2023-09-19T07:26:15;98737.09;;;13.57;100.00
73151;BME280;61354;50.758;6.106;2023-09-19T07:28:41;98740.28;;;13.59;100.00
73151;BME280;61354;50.758;6.106;2023-09-19T07:31:07;98746.75;;;13.71;100.00
73151;BME280;61354;50.758;6.106;2023-09-19T07:33:36;98737.97;;;13.68;100.00
73151;BME280;61354;50.758;6.106;2023-09-19T07:36:02;98746.75;;;13.71;100.00
73151;BME280;61354;50.758;6.106;2023-09-19T07:38:27;98740.41;;;13.77;100.00
73151;BME280;61354;50.758;6.106;2023-09-19T07:40:59;98753.97;;;13.79;100.00
73151;BME280;61354;50.758;6.106;2023-09-19T07:43:25;98754.78;;;13.83;100.00
73151;BME280;61354;50.758;6.106;2023-09-19T07:45:52;98753.22;;;13.89;100.00
73151;BME280;61354;50.758;6.106;2023-09-19T07:48:17;98755.63;;;13.87;100.00
73151;BME280;61354;50.758;6.106;2023-09-19T07:50:43;98743.66;;;13.86;100.00
73151;BME280;61354;50.758;6.106;2023-09-19T07:53:09;98751.25;;;13.93;100.00
73151;BME280;61354;50.758;6.106;2023-09-19T07:55:34;98744.84;;;13.85;100.00
73151;BME280;61354;50.758;6.106;2023-09-19T07:58:00;98749.75;;;14.06;100.00
73151;BME280;61354;50.758;6.106;2023-09-19T08:00:26;98732.94;;;13.96;100.00
73151;BME280;61354;50.758;6.106;2023-09-19T08:02:51;98746.59;;;14.11;100.00
73151;BME280;61354;50.758;6.106;2023-09-19T08:05:20;98740.63;;;14.16;100.00
73151;BME280;61354;50.758;6.106;2023-09-19T08:07:46;98736.66;;;14.25;100.00
73151;BME280;61354;50.758;6.106;2023-09-19T08:10:15;98743.03;;;14.22;100.00
73151;BME280;61354;50.758;6.106;2023-09-19T08:12:44;98742.28;;;14.32;100.00
73151;BME280;61354;50.758;6.106;2023-09-19T08:15:14;98738.28;;;14.33;100.00
73151;BME280;61354;50.758;6.106;2023-09-19T08:17:40;98737.53;;;14.36;100.00
73151;BME280;61354;50.758;6.106;2023-09-19T08:20:07;98739.16;;;14.44;100.00
73151;BME280;61354;50.758;6.106;2023-09-19T08:22:33;98739.16;;;14.44;100.00
73151;BME280;61354;50.758;6.106;2023-09-19T08:24:58;98742.41;;;14.53;100.00
73151;BME280;61354;50.758;6.106;2023-09-19T08:27:24;98744.81;;;14.58;100.00
73151;BME280;61354;50.758;6.106;2023-09-19T08:29:53;98740.00;;;14.55;100.00
73151;BME280;61354;50.758;6.106;2023-09-19T08:32:18;98740.81;;;14.52;100.00
73151;BME280;61354;50.758;6.106;2023-09-19T08:34:49;98744.03;;;14.65;100.00
73151;BME280;61354;50.758;6.106;2023-09-19T08:37:15;98752.03;;;14.70;100.00
73151;BME280;61354;50.758;6.106;2023-09-19T08:39:44;98741.66;;;14.78;100.00
73151;BME280;61354;50.758;6.106;2023-09-19T08:42:10;98738.09;;;14.77;100.00
73151;BME280;61354;50.758;6.106;2023-09-19T08:44:37;98742.88;;;14.91;100.00
73151;BME280;61354;50.758;6.106;2023-09-19T08:47:10;98736.91;;;15.00;100.00
73151;BME280;61354;50.758;6.106;2023-09-19T08:50:00;98747.28;;;14.99;100.00
73151;BME280;61354;50.758;6.106;2023-09-19T08:52:41;98744.91;;;14.98;100.00
73151;BME280;61354;50.758;6.106;2023-09-19T08:55:07;98748.91;;;15.07;100.00
73151;BME280;61354;50.758;6.106;2023-09-19T08:57:37;98756.09;;;15.15;100.00
73151;BME280;61354;50.758;6.106;2023-09-19T09:00:07;98748.91;;;15.07;100.00
73151;BME280;61354;50.758;6.106;2023-09-19T09:02:38;98752.09;;;15.09;100.00
73151;BME280;61354;50.758;6.106;2023-09-19T09:05:08;98745.72;;;15.12;100.00
73151;BME280;61354;50.758;6.106;2023-09-19T09:07:36;98746.50;;;15.13;100.00
73151;BME280;61354;50.758;6.106;2023-09-19T09:10:03;98752.50;;;15.26;100.00
73151;BME280;61354;50.758;6.106;2023-09-19T09:12:29;98753.31;;;15.23;100.00
73151;BME280;61354;50.758;6.106;2023-09-19T09:14:55;98744.53;;;15.28;100.00
73151;BME280;61354;50.758;6.106;2023-09-19T09:17:23;98743.34;;;15.36;100.00
73151;BME280;61354;50.758;6.106;2023-09-19T09:19:52;98740.94;;;15.34;100.00
73151;BME280;61354;50.758;6.106;2023-09-19T09:22:19;98747.31;;;15.38;100.00
73151;BME280;61354;50.758;6.106;2023-09-19T09:24:53;98746.53;;;15.45;100.00
73151;BME280;61354;50.758;6.106;2023-09-19T09:27:29;98737.72;;;15.50;100.00
73151;BME280;61354;50.758;6.106;2023-09-19T09:29:55;98741.31;;;15.51;100.00
73151;BME280;61354;50.758;6.106;2023-09-19T09:32:25;98728.91;;;15.59;100.00
73151;BME280;61354;50.758;6.106;2023-09-19T09:34:56;98729.75;;;15.74;100.00
73151;BME280;61354;50.758;6.106;2023-09-19T09:37:24;98728.16;;;15.65;100.00
73151;BME280;61354;50.758;6.106;2023-09-19T09:39:57;98732.13;;;15.72;100.00
73151;BME280;61354;50.758;6.106;2023-09-19T09:42:34;98731.31;;;15.82;99.50
73151;BME280;61354;50.758;6.106;2023-09-19T09:50:37;98730.53;;;15.85;96.15
73151;BME280;61354;50.758;6.106;2023-09-19T09:56:02;98727.72;;;15.85;94.65
73151;BME280;61354;50.758;6.106;2023-09-19T09:58:35;98732.06;;;16.00;96.00
73151;BME280;61354;50.758;6.106;2023-09-19T10:01:02;98730.84;;;16.08;94.71
73151;BME280;61354;50.758;6.106;2023-09-19T10:03:39;98726.09;;;15.98;93.71
73151;BME280;61354;50.758;6.106;2023-09-19T10:06:07;98731.28;;;15.96;94.50
73151;BME280;61354;50.758;6.106;2023-09-19T10:09:01;98732.06;;;16.07;93.45
73151;BME280;61354;50.758;6.106;2023-09-19T10:11:46;98738.06;;;16.02;92.87
73151;BME280;61354;50.758;6.106;2023-09-19T10:14:20;98740.88;;;16.02;91.03
73151;BME280;61354;50.758;6.106;2023-09-19T10:16:50;98733.63;;;16.19;90.92
73151;BME280;61354;50.758;6.106;2023-09-19T10:19:30;98737.16;;;16.34;90.88
73151;BME280;61354;50.758;6.106;2023-09-19T10:22:00;98728.75;;;16.34;87.11
73151;BME280;61354;50.758;6.106;2023-09-19T10:24:26;98734.44;;;16.16;86.50
73151;BME280;61354;50.758;6.106;2023-09-19T10:26:53;98724.00;;;16.20;85.91
73151;BME280;61354;50.758;6.106;2023-09-19T10:29:21;98744.06;;;16.08;84.90
73151;BME280;61354;50.758;6.106;2023-09-19T10:32:14;98732.06;;;16.07;84.24
73151;BME280;61354;50.758;6.106;2023-09-19T10:34:51;98729.25;;;16.11;83.76
73151;BME280;61354;50.758;6.106;2023-09-19T10:37:22;98725.22;;;16.19;83.53
73151;BME280;61354;50.758;6.106;2023-09-19T10:39:52;98721.59;;;16.26;84.42
73151;BME280;61354;50.758;6.106;2023-09-19T10:42:20;98725.59;;;16.25;82.55
73151;BME280;61354;50.758;6.106;2023-09-19T10:44:50;98716.78;;;16.30;81.66
73151;BME280;61354;50.758;6.106;2023-09-19T10:47:22;98726.81;;;16.24;80.75
73151;BME280;61354;50.758;6.106;2023-09-19T10:49:52;98721.97;;;16.31;82.53
73151;BME280;61354;50.758;6.106;2023-09-19T10:52:40;98726.81;;;16.24;83.71
73151;BME280;61354;50.758;6.106;2023-09-19T10:55:38;98733.13;;;16.42;82.97
73151;BME280;61354;50.758;6.106;2023-09-19T11:07:03;98737.19;;;16.27;79.99
73151;BME280;61354;50.758;6.106;2023-09-19T11:14:51;98736.78;;;16.32;82.34
73151;BME280;61354;50.758;6.106;2023-09-19T11:30:49;98735.09;;;16.49;81.58
73151;BME280;61354;50.758;6.106;2023-09-19T11:33:23;98744.69;;;16.55;82.86
73151;BME280;61354;50.758;6.106;2023-09-19T11:36:00;98735.88;;;16.56;81.82
73151;BME280;61354;50.758;6.106;2023-09-19T11:43:46;98733.41;;;16.73;80.27
73151;BME280;61354;50.758;6.106;2023-09-19T11:46:12;98742.94;;;16.86;83.62
73151;BME280;61354;50.758;6.106;2023-09-19T11:48:43;98727.34;;;16.85;80.86
73151;BME280;61354;50.758;6.106;2023-09-19T11:51:11;98718.09;;;16.88;80.01
73151;BME280;61354;50.758;6.106;2023-09-19T11:53:46;98727.16;;;17.10;80.08
73151;BME280;61354;50.758;6.106;2023-09-19T11:56:24;98723.16;;;17.07;77.48
73151;BME280;61354;50.758;6.106;2023-09-19T11:58:54;98726.69;;;17.19;79.40
73151;BME280;61354;50.758;6.106;2023-09-19T12:01:31;98717.03;;;17.23;79.72
73151;BME280;61354;50.758;6.106;2023-09-19T12:03:58;98715.84;;;17.21;77.15
73151;BME280;61354;50.758;6.106;2023-09-19T12:06:28;98724.22;;;17.28;78.61
73151;BME280;61354;50.758;6.106;2023-09-19T12:09:04;98717.84;;;17.20;75.03
73151;BME280;61354;50.758;6.106;2023-09-19T12:11:41;98714.69;;;17.18;74.29
73151;BME280;61354;50.758;6.106;2023-09-19T12:14:09;98703.84;;;17.17;75.51
73151;BME280;61354;50.758;6.106;2023-09-19T12:16:35;98700.66;;;17.18;76.71
73151;BME280;61354;50.758;6.106;2023-09-19T12:19:18;98713.59;;;17.50;79.17
73151;BME280;61354;50.758;6.106;2023-09-19T12:21:54;98703.47;;;17.63;77.66
73151;BME280;61354;50.758;6.106;2023-09-19T12:24:19;98711.00;;;17.70;77.21
73151;BME280;61354;50.758;6.106;2023-09-19T12:26:46;98706.91;;;17.81;78.17
73151;BME280;61354;50.758;6.106;2023-09-19T12:29:21;98712.41;;;17.92;79.42
73151;BME280;61354;50.758;6.106;2023-09-19T12:31:57;98702.00;;;17.89;77.10
73151;BME280;61354;50.758;6.106;2023-09-19T12:34:25;98706.16;;;17.77;76.23
73151;BME280;61354;50.758;6.106;2023-09-19T12:37:15;98694.09;;;17.80;74.86
73151;BME280;61354;50.758;6.106;2023-09-19T12:39:46;98682.88;;;17.77;70.56
73151;BME280;61354;50.758;6.106;2023-09-19T12:42:19;98691.75;;;18.09;74.16
73151;BME280;61354;50.758;6.106;2023-09-19T12:44:47;98690.53;;;18.10;75.30
73151;BME280;61354;50.758;6.106;2023-09-19T12:47:17;98696.13;;;18.14;75.59
73151;BME280;61354;50.758;6.106;2023-09-19T12:50:08;98685.59;;;18.22;73.26
73151;BME280;61354;50.758;6.106;2023-09-19T12:52:46;98677.56;;;18.20;72.99
73151;BME280;61354;50.758;6.106;2023-09-19T12:55:22;98677.06;;;18.29;74.07
73151;BME280;61354;50.758;6.106;2023-09-19T12:57:56;98674.97;;;18.33;74.98
73151;BME280;61354;50.758;6.106;2023-09-19T13:00:21;98681.47;;;18.30;75.13
73151;BME280;61354;50.758;6.106;2023-09-19T13:03:25;98669.84;;;18.28;74.18
73151;BME280;61354;50.758;6.106;2023-09-19T13:05:52;98666.28;;;18.24;73.16
73151;BME280;61354;50.758;6.106;2023-09-19T13:08:22;98660.41;;;18.11;72.17
73151;BME280;61354;50.758;6.106;2023-09-19T13:11:11;98656.66;;;18.25;73.07
73151;BME280;61354;50.758;6.106;2023-09-19T13:16:20;98671.84;;;18.27;72.40
73151;BME280;61354;50.758;6.106;2023-09-19T13:18:52;98669.50;;;18.22;72.58
73151;BME280;61354;50.758;6.106;2023-09-19T13:21:34;98668.28;;;18.23;73.81
73151;BME280;61354;50.758;6.106;2023-09-19T13:24:24;98682.50;;;18.12;72.57
73151;BME280;61354;50.758;6.106;2023-09-19T13:26:53;98673.63;;;18.14;73.94
73151;BME280;61354;50.758;6.106;2023-09-19T13:29:19;98672.09;;;18.09;73.11
73151;BME280;61354;50.758;6.106;2023-09-19T13:31:51;98687.44;;;18.01;73.36
73151;BME280;61354;50.758;6.106;2023-09-19T13:34:20;98675.22;;;18.15;74.48
73151;BME280;61354;50.758;6.106;2023-09-19T13:36:46;98685.59;;;18.22;73.96
73151;BME280;61354;50.758;6.106;2023-09-19T13:39:18;98712.00;;;18.28;76.91
73151;BME280;61354;50.758;6.106;2023-09-19T13:41:45;98696.88;;;18.18;74.72
73151;BME280;61354;50.758;6.106;2023-09-19T13:44:11;98704.09;;;18.16;73.30
73151;BME280;61354;50.758;6.106;2023-09-19T13:46:37;98695.03;;;18.04;75.10
73151;BME280;61354;50.758;6.106;2023-09-19T13:49:03;98700.66;;;18.04;74.87
73151;BME280;61354;50.758;6.106;2023-09-19T13:51:32;98708.66;;;18.06;74.55
73151;BME280;61354;50.758;6.106;2023-09-19T13:53:58;98701.94;;;17.96;74.67
73151;BME280;61354;50.758;6.106;2023-09-19T13:56:25;98707.88;;;18.02;75.34
73151;BME280;61354;50.758;6.106;2023-09-19T13:58:54;98698.38;;;17.92;73.53
73151;BME280;61354;50.758;6.106;2023-09-19T14:01:20;98695.56;;;17.92;75.47
73151;BME280;61354;50.758;6.106;2023-09-19T14:03:45;98706.13;;;18.15;74.30
73151;BME280;61354;50.758;6.106;2023-09-19T14:06:14;98689.97;;;18.23;73.90
73151;BME280;61354;50.758;6.106;2023-09-19T14:08:40;98687.97;;;18.23;74.53
73151;BME280;61354;50.758;6.106;2023-09-19T14:11:09;98690.22;;;18.05;73.92
73151;BME280;61354;50.758;6.106;2023-09-19T14:13:35;98682.63;;;17.98;73.60
73151;BME280;61354;50.758;6.106;2023-09-19T14:16:07;98692.66;;;18.33;75.00
73151;BME280;61354;50.758;6.106;2023-09-19T14:18:34;98680.19;;;18.34;72.73
73151;BME280;61354;50.758;6.106;2023-09-19T14:21:06;98677.91;;;18.26;71.67
73151;BME280;61354;50.758;6.106;2023-09-19T14:23:37;98675.81;;;18.33;72.77
73151;BME280;61354;50.758;6.106;2023-09-19T14:26:03;98685.16;;;18.23;74.68
73151;BME280;61354;50.758;6.106;2023-09-19T14:28:28;98682.56;;;18.05;74.03
73151;BME280;61354;50.758;6.106;2023-09-19T14:30:55;98689.41;;;18.04;75.96
73151;BME280;61354;50.758;6.106;2023-09-19T14:33:21;98696.16;;;18.10;75.73
73151;BME280;61354;50.758;6.106;2023-09-19T14:35:46;98699.50;;;17.98;75.87
73151;BME280;61354;50.758;6.106;2023-09-19T14:38:12;98688.22;;;18.02;73.53
73151;BME280;61354;50.758;6.106;2023-09-19T14:40:37;98694.56;;;18.09;73.57
73151;BME280;61354;50.758;6.106;2023-09-19T14:43:04;98685.84;;;18.00;74.59
73151;BME280;61354;50.758;6.106;2023-09-19T14:45:30;98684.75;;;17.87;73.18
73151;BME280;61354;50.758;6.106;2023-09-19T14:47:56;98687.50;;;17.94;74.05
73151;BME280;61354;50.758;6.106;2023-09-19T14:50:22;98679.53;;;18.23;74.74
73151;BME280;61354;50.758;6.106;2023-09-19T14:52:48;98683.81;;;18.35;72.75